McRaney, Mississippi
Current Conditions -  °F | °C
As of 4:15 PM on Friday 31 Oct 2014 (Local Time) from KPIB Reporting Station
Scattered Clouds Scattered Clouds  
Wind Chill: 72°   Ceiling: Unl
Heat Index: 72°   Visibility: 10mi
Dew Point: 46°   Wind: 14mph
Humidity: 41%   Direction: 330°NNW
Pressure: 30.02"   Gusts: 23mph
Location:  31.6692°N, 89.543°W
Report Text: KPIB 312115Z AUTO 33012G20KT 10SM SCT050 22/08 A3002 RMK AO1
Loading
Personal Weather Stations






























Interactive Weather Map
Tropical Storm Tracking
New forecast layout! Learn more

10-Day Weather Forecast

Advertisements
Track Severe Weather on mobile